Terminal Aerodrome Forecast
Issued by NWS Caribou, ME

Home | Current Version | Previous Version | Text Only | Print | Product List | Glossary On
Versions: 1 2 3 4 5 6 7 8 9 10 11 12 13 14 15 16
000
FTUS41 KCAR 261720
TAFBGR
TAF
KBGR 261720Z 2618/2718 27004KT P6SM FEW250
     FM262300 20004KT P6SM SKC
     FM271200 20004KT 3SM -RA OVC030
     FM271400 20004KT 2SM -RADZ OVC007=

USA.gov is the U.S. government's official web portal to all federal, state and local government web resources and services.